Time;durP1;ratioP1;P1;durP2;ratioP2;P2;SDS_P1;SDS_P2;PMS_P1;PMS_P2;Temp;Humidity;BMP_temperature;BMP_pressure;BME280_temperature;BME280_humidity;BME280_pressure;Samples;Min_cycle;Max_cycle;Signal;HPM_P1;HPM_P2
2022/01/21 00:00:50;;;;;;;3.83;1.20;;;3.30;99.90;;;;;;4986158;28;20242;-83
2022/01/21 00:03:17;;;;;;;3.50;1.20;;;3.30;99.90;;;;;;4990528;28;20187;-80
2022/01/21 00:05:45;;;;;;;2.70;1.40;;;3.30;99.90;;;;;;4988028;28;20328;-78
2022/01/21 00:08:11;;;;;;;3.60;1.17;;;3.30;99.90;;;;;;4989938;28;20243;-74
2022/01/21 00:10:39;;;;;;;4.20;1.50;;;3.30;99.90;;;;;;4987347;28;20377;-81
2022/01/21 00:13:22;;;;;;;2.87;1.40;;;3.20;99.90;;;;;;4988210;28;20239;-81
2022/01/21 00:15:50;;;;;;;5.73;1.33;;;3.20;99.90;;;;;;4984367;28;20211;-81
2022/01/21 00:18:38;;;;;;;6.20;1.40;;;3.10;99.90;;;;;;4993125;28;20179;-81
2022/01/21 00:32:05;;;;;;;4.60;1.60;;;3.10;99.90;;;;;;4982906;28;20241;-81
2022/01/21 00:34:33;;;;;;;3.07;1.37;;;3.10;99.90;;;;;;4985290;28;20211;-74
2022/01/21 00:37:01;;;;;;;4.00;1.50;;;3.10;99.90;;;;;;4997432;28;20188;-79
2022/01/21 00:39:30;;;;;;;4.13;1.30;;;3.10;99.90;;;;;;4992764;28;20175;-81
2022/01/21 00:44:24;;;;;;;3.87;1.50;;;3.20;99.90;;;;;;4993084;28;20195;-78
2022/01/21 00:46:52;;;;;;;6.07;1.90;;;3.20;99.90;;;;;;4992184;28;20236;-79
2022/01/21 00:49:20;;;;;;;4.07;1.40;;;3.20;99.90;;;;;;4991492;28;20191;-79
2022/01/21 00:51:47;;;;;;;4.30;1.53;;;3.20;99.90;;;;;;4990038;28;20225;-82
2022/01/21 00:54:15;;;;;;;6.73;1.50;;;3.20;99.90;;;;;;4991328;28;20199;-80
2022/01/21 00:56:43;;;;;;;6.67;1.90;;;3.10;99.90;;;;;;4990868;28;20249;-80
2022/01/21 00:59:08;;;;;;;3.17;1.53;;;3.20;99.90;;;;;;4988721;28;20196;-70
2022/01/21 01:01:34;;;;;;;4.50;1.90;;;3.10;99.90;;;;;;4990093;28;20291;-81
2022/01/21 01:04:00;;;;;;;4.00;1.50;;;3.10;99.90;;;;;;4993298;28;20186;-77
2022/01/21 01:06:28;;;;;;;5.17;2.03;;;3.10;99.90;;;;;;4993336;28;20180;-74
2022/01/21 01:08:56;;;;;;;4.50;1.60;;;3.00;99.90;;;;;;4990316;28;20356;-78
2022/01/21 01:22:09;;;;;;;5.53;1.80;;;3.00;99.90;;;;;;4987853;28;20202;-80
2022/01/21 01:30:05;;;;;;;5.53;1.77;;;3.00;99.90;;;;;;4991882;28;20229;-75
2022/01/21 01:32:32;;;;;;;4.20;1.67;;;3.00;99.90;;;;;;4991913;28;20195;-80
2022/01/21 01:34:57;;;;;;;5.20;1.63;;;3.00;99.90;;;;;;4990265;28;20265;-78
2022/01/21 01:37:41;;;;;;;4.80;1.70;;;2.90;99.90;;;;;;4993457;28;20191;-71
2022/01/21 01:50:52;;;;;;;5.23;1.60;;;2.90;99.90;;;;;;4990875;28;20187;-80
2022/01/21 01:53:28;;;;;;;4.63;1.50;;;2.90;99.90;;;;;;4991874;28;20202;-78
2022/01/21 01:55:57;;;;;;;4.33;1.80;;;2.90;99.90;;;;;;4995723;28;20231;-76
2022/01/21 01:58:23;;;;;;;4.27;1.70;;;2.90;99.90;;;;;;4995559;28;20182;-80
2022/01/21 02:00:56;;;;;;;4.63;1.50;;;2.90;99.90;;;;;;4992180;28;20176;-79
2022/01/21 02:03:23;;;;;;;4.43;1.83;;;2.90;99.90;;;;;;4983400;28;20187;-74
2022/01/21 02:05:48;;;;;;;4.67;1.70;;;2.90;99.90;;;;;;4999046;28;20202;-73
2022/01/21 02:08:14;;;;;;;4.87;1.80;;;3.00;99.90;;;;;;4982149;28;20317;-80
2022/01/21 02:10:42;;;;;;;3.67;1.70;;;3.00;99.90;;;;;;4993260;28;20187;-76
2022/01/21 02:13:29;;;;;;;3.43;1.50;;;3.00;99.90;;;;;;4991740;28;20183;-72
2022/01/21 02:21:40;;;;;;;4.20;1.67;;;3.00;99.90;;;;;;4992284;28;20269;-79
2022/01/21 02:24:15;;;;;;;5.87;1.60;;;3.10;99.90;;;;;;4990035;28;20191;-77
2022/01/21 02:26:42;;;;;;;3.87;1.57;;;3.10;99.90;;;;;;4988149;28;20191;-77
2022/01/21 02:29:11;;;;;;;3.57;1.50;;;3.10;99.90;;;;;;4991044;28;20191;-79
2022/01/21 02:31:41;;;;;;;5.77;2.40;;;3.10;99.90;;;;;;4990292;28;20187;-80
2022/01/21 02:34:10;;;;;;;8.23;1.80;;;3.10;99.90;;;;;;4989618;28;20218;-77
2022/01/21 02:36:36;;;;;;;5.33;2.10;;;3.10;99.90;;;;;;4990682;28;20211;-80
2022/01/21 02:39:04;;;;;;;5.17;2.00;;;3.10;99.90;;;;;;4992973;28;20183;-75
2022/01/21 02:41:32;;;;;;;4.80;1.60;;;3.20;99.90;;;;;;4988852;28;20243;-81
2022/01/21 02:43:58;;;;;;;4.97;1.87;;;3.20;99.90;;;;;;4991830;28;20199;-79
2022/01/21 02:46:27;;;;;;;4.70;1.73;;;3.20;99.90;;;;;;4991859;28;20214;-74
2022/01/21 02:48:55;;;;;;;6.03;2.03;;;3.20;99.90;;;;;;4990567;28;20192;-80
2022/01/21 02:51:21;;;;;;;3.97;1.77;;;3.20;99.90;;;;;;4984631;28;20222;-75
2022/01/21 02:56:22;;;;;;;4.23;1.70;;;3.20;99.90;;;;;;4985851;28;20175;-77
2022/01/21 02:58:50;;;;;;;4.00;2.00;;;3.20;99.90;;;;;;4990617;28;20225;-71
2022/01/21 03:01:21;;;;;;;5.90;2.00;;;3.20;99.90;;;;;;4991250;28;20287;-79
2022/01/21 03:03:46;;;;;;;5.93;2.20;;;3.30;99.90;;;;;;4991705;28;20186;-79
2022/01/21 03:06:15;;;;;;;6.77;1.93;;;3.30;99.90;;;;;;4991213;28;20187;-77
2022/01/21 03:08:43;;;;;;;3.23;1.53;;;3.20;99.90;;;;;;4987512;28;20194;-73
2022/01/21 03:11:12;;;;;;;5.03;1.93;;;3.20;99.90;;;;;;4980382;28;20195;-76
2022/01/21 03:13:42;;;;;;;7.13;1.93;;;3.20;99.90;;;;;;4986512;28;20176;-80
2022/01/21 03:16:10;;;;;;;4.90;1.80;;;3.30;99.90;;;;;;4990611;28;20190;-77
2022/01/21 03:18:38;;;;;;;4.57;2.00;;;3.20;99.90;;;;;;4986956;28;20178;-72
2022/01/21 03:21:04;;;;;;;4.70;1.90;;;3.30;99.90;;;;;;4985369;28;20183;-77
2022/01/21 03:23:30;;;;;;;4.83;2.07;;;3.30;99.90;;;;;;4990552;28;20200;-70
2022/01/21 03:25:58;;;;;;;5.60;2.00;;;3.30;99.90;;;;;;4983944;28;20286;-71
2022/01/21 03:28:29;;;;;;;5.47;2.03;;;3.30;99.90;;;;;;4989312;28;20272;-71
2022/01/21 03:30:56;;;;;;;4.27;1.90;;;3.30;99.90;;;;;;4985825;28;20411;-72
2022/01/21 03:33:24;;;;;;;7.03;2.13;;;3.30;99.90;;;;;;4988403;28;20175;-67
2022/01/21 03:35:53;;;;;;;6.73;2.03;;;3.30;99.90;;;;;;4985483;28;20306;-72
2022/01/21 03:38:21;;;;;;;6.93;2.00;;;3.40;99.90;;;;;;4989109;28;20270;-73
2022/01/21 03:40:49;;;;;;;5.27;2.00;;;3.30;99.90;;;;;;4988539;28;20262;-71
2022/01/21 03:43:16;;;;;;;4.93;1.87;;;3.40;99.90;;;;;;4987930;28;20189;-73
2022/01/21 03:45:42;;;;;;;5.47;2.37;;;3.30;99.90;;;;;;4985218;28;20179;-72
2022/01/21 03:48:10;;;;;;;4.07;1.73;;;3.30;99.90;;;;;;4987916;28;20263;-70
2022/01/21 03:50:38;;;;;;;4.70;1.70;;;3.40;99.90;;;;;;4986980;28;20194;-71
2022/01/21 03:53:06;;;;;;;6.37;2.27;;;3.40;99.90;;;;;;4981898;28;20214;-69
2022/01/21 03:55:33;;;;;;;5.13;2.00;;;3.40;99.90;;;;;;4990402;28;20203;-68
2022/01/21 03:58:03;;;;;;;6.00;2.20;;;3.40;99.90;;;;;;4985005;28;20246;-69
2022/01/21 04:00:32;;;;;;;5.67;2.40;;;3.40;99.90;;;;;;4992797;28;20258;-73
2022/01/21 04:03:01;;;;;;;6.23;2.10;;;3.40;99.90;;;;;;4992694;28;20175;-73
2022/01/21 04:05:29;;;;;;;5.90;2.10;;;3.40;99.90;;;;;;4985861;28;20195;-70
2022/01/21 04:07:56;;;;;;;5.23;1.87;;;3.40;99.90;;;;;;4992072;28;20179;-71
2022/01/21 04:10:22;;;;;;;5.77;2.13;;;3.40;99.90;;;;;;4990075;28;20213;-72
2022/01/21 04:12:47;;;;;;;3.33;1.70;;;3.40;99.90;;;;;;5002637;28;20179;-71
2022/01/21 04:15:14;;;;;;;4.43;1.70;;;3.40;99.90;;;;;;4991070;28;20627;-72
2022/01/21 04:17:40;;;;;;;3.13;1.50;;;3.40;99.90;;;;;;4995801;28;20194;-70
2022/01/21 04:20:13;;;;;;;6.30;2.27;;;3.40;99.90;;;;;;4990135;28;20179;-72
2022/01/21 04:22:40;;;;;;;5.90;1.90;;;3.40;99.90;;;;;;4989027;28;20294;-69
2022/01/21 04:25:06;;;;;;;5.27;1.70;;;3.50;99.90;;;;;;4991037;28;20235;-73
2022/01/21 04:27:32;;;;;;;4.00;1.77;;;3.50;99.90;;;;;;4992680;28;20191;-73
2022/01/21 04:30:00;;;;;;;4.67;2.00;;;3.50;99.90;;;;;;4993942;28;20322;-70
2022/01/21 04:32:28;;;;;;;4.13;2.33;;;3.50;99.90;;;;;;4994660;28;20178;-69
2022/01/21 04:34:54;;;;;;;4.67;1.83;;;3.50;99.90;;;;;;4989029;28;20301;-71
2022/01/21 04:37:22;;;;;;;6.13;1.63;;;3.50;99.90;;;;;;4989526;28;20439;-69
2022/01/21 04:47:39;;;;;;;3.40;1.43;;;3.50;99.90;;;;;;4990796;28;20268;-66
2022/01/21 04:50:10;;;;;;;5.20;2.17;;;3.50;99.90;;;;;;4993588;28;20189;-71
2022/01/21 04:52:41;;;;;;;6.67;1.63;;;3.50;99.90;;;;;;4980346;28;20206;-70
2022/01/21 04:55:08;;;;;;;4.20;1.53;;;3.50;99.90;;;;;;4990968;28;20204;-72
2022/01/21 04:57:34;;;;;;;5.57;1.80;;;3.60;99.90;;;;;;4989644;28;20199;-73
2022/01/21 04:59:59;;;;;;;4.83;1.90;;;3.60;99.90;;;;;;4991518;28;20183;-73
2022/01/21 05:02:27;;;;;;;6.07;2.17;;;3.60;99.90;;;;;;4991380;28;20222;-70
2022/01/21 05:04:52;;;;;;;4.03;1.63;;;3.60;99.90;;;;;;4988204;28;20180;-69
2022/01/21 05:07:22;;;;;;;5.13;2.47;;;3.60;99.90;;;;;;4986855;28;20198;-73
2022/01/21 05:09:48;;;;;;;4.43;2.00;;;3.60;99.90;;;;;;4990251;28;20179;-70
2022/01/21 05:12:19;;;;;;;5.63;2.07;;;3.60;99.90;;;;;;4991210;28;20187;-73
2022/01/21 05:17:26;;;;;;;4.93;1.97;;;3.70;99.90;;;;;;4988673;28;20179;-72
2022/01/21 05:19:54;;;;;;;5.50;1.60;;;3.70;99.90;;;;;;4990639;28;20192;-68
2022/01/21 05:22:19;;;;;;;4.13;1.60;;;3.70;99.90;;;;;;4990293;28;20241;-72
2022/01/21 05:24:45;;;;;;;5.57;1.53;;;3.70;99.90;;;;;;4989639;28;20203;-70
2022/01/21 05:27:14;;;;;;;4.07;1.93;;;3.70;99.90;;;;;;4992615;28;20258;-74
2022/01/21 05:29:40;;;;;;;4.80;1.57;;;3.70;99.90;;;;;;4992647;28;20175;-71
2022/01/21 05:32:07;;;;;;;6.23;3.30;;;3.80;99.90;;;;;;4984119;28;20187;-73
2022/01/21 05:34:38;;;;;;;4.87;2.10;;;3.80;99.90;;;;;;4989622;28;20199;-69
2022/01/21 05:37:04;;;;;;;5.73;2.10;;;3.80;99.90;;;;;;4992330;28;20630;-69
2022/01/21 05:39:29;;;;;;;3.50;1.70;;;3.80;99.90;;;;;;4992188;28;20191;-71
2022/01/21 05:42:00;;;;;;;5.93;2.00;;;3.80;99.90;;;;;;4989139;28;20275;-73
2022/01/21 05:47:00;;;;;;;6.70;2.87;;;3.80;99.90;;;;;;4988695;28;20180;-73
2022/01/21 05:49:28;;;;;;;5.50;2.00;;;3.80;99.90;;;;;;4991825;28;20188;-68
2022/01/21 05:52:05;;;;;;;2.77;1.77;;;3.80;99.90;;;;;;4991756;28;20562;-72
2022/01/21 05:54:33;;;;;;;6.00;1.90;;;3.80;99.90;;;;;;4984459;28;20207;-67
2022/01/21 05:57:05;;;;;;;6.37;2.23;;;3.80;99.90;;;;;;4993609;28;20183;-72
2022/01/21 05:59:33;;;;;;;4.93;1.93;;;3.80;99.90;;;;;;4991928;28;20199;-71
2022/01/21 06:02:02;;;;;;;6.37;1.90;;;3.80;99.90;;;;;;4990818;28;20187;-71
2022/01/21 06:04:27;;;;;;;6.53;2.00;;;3.80;99.90;;;;;;4992176;28;20210;-74
2022/01/21 06:06:53;;;;;;;4.47;1.90;;;3.80;99.90;;;;;;4986310;28;20207;-71
2022/01/21 06:09:19;;;;;;;4.87;2.00;;;3.80;99.90;;;;;;4991501;28;20214;-72
2022/01/21 06:11:45;;;;;;;5.00;2.00;;;3.80;99.90;;;;;;4992645;28;20183;-72
2022/01/21 06:14:10;;;;;;;6.87;2.03;;;3.90;99.90;;;;;;4987476;28;20203;-73
2022/01/21 06:16:38;;;;;;;3.50;1.90;;;3.90;99.90;;;;;;4992883;28;20202;-72
2022/01/21 06:19:06;;;;;;;6.20;2.70;;;3.90;99.90;;;;;;4991634;28;20211;-73
2022/01/21 06:21:31;;;;;;;6.27;2.60;;;3.90;99.90;;;;;;4988799;28;20242;-73
2022/01/21 06:23:59;;;;;;;6.27;1.90;;;3.90;99.90;;;;;;4986398;28;20191;-73
2022/01/21 06:26:25;;;;;;;7.87;2.30;;;3.90;99.90;;;;;;4991138;28;20341;-70
2022/01/21 06:28:51;;;;;;;7.03;2.17;;;3.90;99.90;;;;;;4989508;28;20192;-73
2022/01/21 06:31:16;;;;;;;6.27;2.00;;;3.90;99.90;;;;;;4991159;28;20277;-74
2022/01/21 06:33:44;;;;;;;8.10;2.10;;;3.90;99.90;;;;;;4991505;28;20241;-69
2022/01/21 06:36:10;;;;;;;6.63;2.03;;;3.90;99.90;;;;;;4981677;28;20195;-71
2022/01/21 06:38:35;;;;;;;4.67;1.90;;;3.90;99.90;;;;;;4989606;28;20200;-68
2022/01/21 06:41:02;;;;;;;3.37;1.87;;;3.90;99.90;;;;;;4986626;28;20179;-73
2022/01/21 06:43:28;;;;;;;5.33;1.80;;;3.90;99.90;;;;;;4991449;28;20187;-74
2022/01/21 06:45:56;;;;;;;4.70;1.67;;;3.90;99.90;;;;;;4990951;28;20209;-69
2022/01/21 06:48:21;;;;;;;4.30;1.80;;;3.90;99.90;;;;;;4984479;28;20188;-70
2022/01/21 06:50:49;;;;;;;5.60;2.00;;;3.90;99.90;;;;;;4987974;28;20195;-73
2022/01/21 06:53:15;;;;;;;4.97;2.00;;;3.90;99.90;;;;;;4991288;28;20503;-74
2022/01/21 06:55:42;;;;;;;7.03;2.30;;;3.90;99.90;;;;;;4991222;28;20293;-65
2022/01/21 06:58:11;;;;;;;5.13;2.93;;;3.90;99.90;;;;;;4990033;28;20183;-73
2022/01/21 07:00:36;;;;;;;4.93;2.00;;;3.90;99.90;;;;;;4988249;28;20226;-69
2022/01/21 07:03:04;;;;;;;5.27;2.10;;;3.90;99.90;;;;;;4986805;28;20246;-74
2022/01/21 07:05:30;;;;;;;6.07;2.20;;;3.90;99.90;;;;;;4987077;28;20274;-73
2022/01/21 07:07:58;;;;;;;5.10;2.20;;;4.00;99.90;;;;;;4987791;28;20275;-74
2022/01/21 07:10:24;;;;;;;6.87;2.30;;;3.90;99.90;;;;;;4986997;28;20270;-73
2022/01/21 07:12:52;;;;;;;6.30;2.50;;;4.00;99.90;;;;;;4989495;28;20234;-74
2022/01/21 07:15:19;;;;;;;4.30;2.27;;;4.00;99.90;;;;;;4991391;28;20203;-74
2022/01/21 07:17:46;;;;;;;5.13;2.00;;;4.00;99.90;;;;;;4991276;28;20191;-75
2022/01/21 07:20:13;;;;;;;6.83;2.20;;;4.00;99.90;;;;;;4988534;28;20195;-71
2022/01/21 07:22:39;;;;;;;5.57;2.53;;;3.90;99.90;;;;;;4988883;28;20184;-73
2022/01/21 07:25:05;;;;;;;4.53;2.00;;;4.00;99.90;;;;;;4989894;28;20184;-68
2022/01/21 07:27:33;;;;;;;6.20;2.40;;;4.00;99.90;;;;;;4988387;28;20208;-74
2022/01/21 07:29:59;;;;;;;4.83;1.93;;;4.00;99.90;;;;;;4992973;28;20183;-72
2022/01/21 07:32:29;;;;;;;4.80;1.87;;;4.00;99.90;;;;;;4991095;28;20499;-72
2022/01/21 07:34:57;;;;;;;3.33;1.60;;;4.00;99.90;;;;;;4985490;28;20204;-74
2022/01/21 07:37:23;;;;;;;6.20;1.83;;;4.00;99.90;;;;;;4989423;28;20171;-74
2022/01/21 07:39:48;;;;;;;3.90;1.83;;;4.00;99.90;;;;;;4989875;28;20189;-74
2022/01/21 07:42:14;;;;;;;5.60;2.00;;;4.00;99.90;;;;;;4991576;28;20179;-71
2022/01/21 07:44:40;;;;;;;6.87;2.10;;;4.00;99.90;;;;;;4991694;28;20191;-73
2022/01/21 07:47:06;;;;;;;6.87;2.03;;;4.00;99.90;;;;;;4987462;28;20211;-71
2022/01/21 07:49:32;;;;;;;4.50;1.90;;;4.00;99.90;;;;;;4986921;28;20398;-72
2022/01/21 07:52:00;;;;;;;4.63;1.83;;;4.00;99.90;;;;;;4990265;28;20264;-76
2022/01/21 07:54:28;;;;;;;5.70;1.90;;;4.10;99.90;;;;;;4988204;28;20216;-83
2022/01/21 07:56:58;;;;;;;4.67;2.20;;;4.10;99.90;;;;;;4991027;28;20240;-73
2022/01/21 07:59:24;;;;;;;4.80;2.30;;;4.10;99.90;;;;;;4984184;28;20184;-77
2022/01/21 08:01:50;;;;;;;7.47;2.47;;;4.10;99.90;;;;;;4986722;28;20221;-76
2022/01/21 08:04:15;;;;;;;7.30;2.80;;;4.10;99.90;;;;;;4998826;28;20215;-69
2022/01/21 08:06:41;;;;;;;3.23;1.80;;;4.10;99.90;;;;;;4987099;28;20198;-72
2022/01/21 08:09:09;;;;;;;5.67;2.37;;;4.20;99.90;;;;;;4987702;28;20184;-76
2022/01/21 08:11:35;;;;;;;4.83;2.00;;;4.20;99.90;;;;;;4988821;28;20187;-73
2022/01/21 08:14:00;;;;;;;4.30;2.40;;;4.20;99.90;;;;;;4987453;28;20195;-81
2022/01/21 08:16:26;;;;;;;5.10;2.30;;;4.20;99.90;;;;;;4988242;28;20190;-76
2022/01/21 08:18:54;;;;;;;4.67;2.20;;;4.20;99.90;;;;;;4988750;28;20183;-80
2022/01/21 08:21:20;;;;;;;5.93;2.40;;;4.20;99.90;;;;;;4990156;28;20290;-77
2022/01/21 08:23:53;;;;;;;5.00;2.17;;;4.20;99.90;;;;;;4986383;28;20275;-79
2022/01/21 08:26:22;;;;;;;4.10;1.80;;;4.30;99.90;;;;;;4981528;28;20195;-77
2022/01/21 08:28:52;;;;;;;5.60;2.00;;;4.30;99.90;;;;;;4986450;28;20183;-83
2022/01/21 08:31:18;;;;;;;4.57;2.03;;;4.30;99.90;;;;;;4983923;28;20198;-76
2022/01/21 08:33:47;;;;;;;5.27;2.10;;;4.30;99.90;;;;;;4990833;28;20207;-76
2022/01/21 08:36:18;;;;;;;7.83;2.80;;;4.30;99.90;;;;;;4988410;28;20250;-75
2022/01/21 08:38:44;;;;;;;6.03;2.80;;;4.40;99.90;;;;;;4986960;28;20203;-73
2022/01/21 08:41:10;;;;;;;6.30;2.57;;;4.40;99.90;;;;;;4990086;28;20188;-79
2022/01/21 08:43:38;;;;;;;5.27;2.70;;;4.40;99.90;;;;;;4987858;28;20199;-71
2022/01/21 08:46:07;;;;;;;4.73;2.40;;;4.40;99.90;;;;;;4986392;28;20188;-74
2022/01/21 08:48:34;;;;;;;5.27;2.30;;;4.40;99.90;;;;;;4989250;28;20219;-77
2022/01/21 08:51:02;;;;;;;6.93;2.90;;;4.40;99.90;;;;;;4984263;28;20219;-70
2022/01/21 08:53:38;;;;;;;7.27;2.60;;;4.40;99.90;;;;;;4985194;28;20191;-74
2022/01/21 08:56:08;;;;;;;6.60;3.20;;;4.50;99.90;;;;;;4984455;28;20203;-75
2022/01/21 08:58:34;;;;;;;5.60;2.50;;;4.50;99.90;;;;;;4988102;28;20456;-78
2022/01/21 09:01:03;;;;;;;5.17;2.77;;;4.50;99.90;;;;;;4988101;28;20208;-73
2022/01/21 09:03:32;;;;;;;7.03;3.00;;;4.50;99.90;;;;;;4986566;28;20381;-76
2022/01/21 09:05:57;;;;;;;6.33;3.07;;;4.50;99.90;;;;;;4986550;28;20237;-74
2022/01/21 09:08:25;;;;;;;5.17;2.40;;;4.60;99.90;;;;;;4990598;28;20187;-79
2022/01/21 09:10:55;;;;;;;5.13;2.40;;;4.60;99.90;;;;;;4987166;28;20204;-72
2022/01/21 09:13:23;;;;;;;4.80;2.37;;;4.60;99.90;;;;;;5000622;28;20195;-68
2022/01/21 09:15:58;;;;;;;3.50;2.40;;;4.60;99.90;;;;;;4992636;28;20246;-67
2022/01/21 09:18:32;;;;;;;5.07;2.40;;;4.60;99.90;;;;;;4992883;28;20225;-74
2022/01/21 09:20:58;;;;;;;6.30;2.50;;;4.70;99.90;;;;;;4989937;28;20176;-74
2022/01/21 09:23:26;;;;;;;6.67;2.57;;;4.70;99.90;;;;;;4994237;28;20210;-73
2022/01/21 09:25:52;;;;;;;3.87;2.40;;;4.70;99.90;;;;;;4986381;28;20261;-68
2022/01/21 09:28:17;;;;;;;5.20;2.50;;;4.70;99.90;;;;;;4986227;28;20279;-71
2022/01/21 09:30:46;;;;;;;5.83;2.93;;;4.80;99.90;;;;;;4989439;28;20277;-63
2022/01/21 09:33:14;;;;;;;6.57;2.70;;;4.80;99.90;;;;;;4988584;28;20188;-71
2022/01/21 09:35:39;;;;;;;5.20;2.63;;;4.80;99.90;;;;;;4991972;28;20454;-71
2022/01/21 09:38:05;;;;;;;6.43;3.00;;;4.80;99.90;;;;;;4992707;28;20191;-77
2022/01/21 09:40:42;;;;;;;7.50;3.00;;;4.80;99.90;;;;;;4989617;28;20253;-73
2022/01/21 09:43:08;;;;;;;6.57;2.90;;;4.90;99.90;;;;;;4990062;28;20258;-69
2022/01/21 09:45:37;;;;;;;3.90;2.37;;;4.90;99.90;;;;;;4988606;28;20222;-74
2022/01/21 09:48:10;;;;;;;4.40;2.40;;;4.90;99.90;;;;;;4991638;28;20196;-77
2022/01/21 09:50:38;;;;;;;5.03;2.60;;;4.90;99.90;;;;;;4987324;28;20208;-71
2022/01/21 09:53:08;;;;;;;5.80;2.80;;;4.90;99.90;;;;;;4989731;28;20190;-73
2022/01/21 09:55:36;;;;;;;3.97;2.60;;;5.00;99.90;;;;;;4981927;28;20226;-75
2022/01/21 09:58:03;;;;;;;5.03;2.77;;;5.00;99.90;;;;;;4989483;28;20179;-72
2022/01/21 10:00:28;;;;;;;7.10;3.10;;;5.10;99.90;;;;;;4989600;28;20199;-78
2022/01/21 10:02:57;;;;;;;7.77;3.13;;;5.10;99.90;;;;;;4994070;28;20207;-76
2022/01/21 10:05:22;;;;;;;5.83;2.60;;;5.10;99.90;;;;;;4991534;28;20241;-73
2022/01/21 10:07:49;;;;;;;6.60;2.73;;;5.20;99.90;;;;;;4993183;28;20187;-75
2022/01/21 10:10:19;;;;;;;6.57;2.87;;;5.20;99.90;;;;;;4990246;28;20210;-71
2022/01/21 10:12:48;;;;;;;4.00;2.30;;;5.20;99.90;;;;;;4990411;28;20229;-80
2022/01/21 10:15:18;;;;;;;4.33;2.13;;;5.20;99.90;;;;;;4993594;28;20293;-73
2022/01/21 10:18:06;;;;;;;5.17;2.57;;;5.30;99.90;;;;;;4986962;28;20218;-76
2022/01/21 10:20:32;;;;;;;3.80;2.63;;;5.30;99.90;;;;;;4989994;28;20491;-78
2022/01/21 10:23:09;;;;;;;5.13;2.53;;;5.40;99.90;;;;;;4988412;28;20473;-77
2022/01/21 10:25:40;;;;;;;4.90;2.60;;;5.40;99.90;;;;;;4989932;28;20400;-80
2022/01/21 10:28:18;;;;;;;5.93;2.23;;;5.50;99.90;;;;;;5001587;28;20219;-70
2022/01/21 10:30:48;;;;;;;5.33;2.90;;;5.50;99.90;;;;;;4989955;28;20275;-72
2022/01/21 10:33:24;;;;;;;6.63;2.90;;;5.60;99.90;;;;;;4992267;28;20179;-72
2022/01/21 10:36:14;;;;;;;6.27;2.93;;;5.60;99.90;;;;;;4992017;28;20207;-74
2022/01/21 10:38:47;;;;;;;6.23;2.83;;;5.60;99.90;;;;;;4984381;28;20211;-71
2022/01/21 10:41:18;;;;;;;5.03;2.57;;;5.70;99.90;;;;;;4982126;28;20259;-72
2022/01/21 10:44:01;;;;;;;6.97;3.00;;;5.70;99.90;;;;;;4986861;28;20242;-72
2022/01/21 10:46:26;;;;;;;5.47;2.83;;;5.70;99.90;;;;;;4992722;28;20270;-75
2022/01/21 10:48:58;;;;;;;4.80;2.63;;;5.80;99.90;;;;;;4988535;28;20262;-67
2022/01/21 10:51:33;;;;;;;4.97;2.60;;;5.80;99.90;;;;;;4988174;28;20172;-73
2022/01/21 10:54:11;;;;;;;7.37;2.87;;;5.80;99.90;;;;;;4989642;28;20405;-77
2022/01/21 10:56:39;;;;;;;5.43;2.70;;;5.80;99.90;;;;;;4992247;28;20187;-76
2022/01/21 10:59:06;;;;;;;5.47;2.60;;;5.90;99.90;;;;;;4992470;28;20259;-77
2022/01/21 11:01:32;;;;;;;6.90;2.80;;;5.90;99.90;;;;;;4988971;28;20203;-74
2022/01/21 11:04:01;;;;;;;6.47;2.40;;;5.90;99.90;;;;;;5002526;28;20183;-80
2022/01/21 11:06:52;;;;;;;4.97;2.33;;;6.00;99.90;;;;;;4991222;28;20183;-81
2022/01/21 11:09:31;;;;;;;6.30;2.87;;;6.00;99.90;;;;;;4991071;28;20187;-78
2022/01/21 11:12:14;;;;;;;5.30;2.60;;;6.10;99.90;;;;;;4986149;28;20207;-74
2022/01/21 11:15:06;;;;;;;11.47;3.60;;;6.10;99.90;;;;;;4990240;28;20214;-79
2022/01/21 11:17:37;;;;;;;4.97;2.67;;;6.20;99.90;;;;;;4988810;28;20195;-73
2022/01/21 11:20:16;;;;;;;7.50;3.00;;;6.20;99.90;;;;;;4990178;28;20171;-71
2022/01/21 11:22:58;;;;;;;5.40;2.83;;;6.20;99.90;;;;;;4990668;28;20189;-77
2022/01/21 11:25:48;;;;;;;5.50;3.00;;;6.30;99.90;;;;;;4986527;28;20245;-76
2022/01/21 11:28:21;;;;;;;5.23;2.57;;;6.30;99.90;;;;;;4988668;28;20322;-74
2022/01/21 11:30:49;;;;;;;6.57;3.00;;;6.30;99.90;;;;;;4983097;28;20434;-80
2022/01/21 11:33:15;;;;;;;5.53;2.83;;;6.30;99.90;;;;;;4990119;28;20187;-78
2022/01/21 11:35:41;;;;;;;7.90;2.97;;;6.40;99.90;;;;;;4989762;28;20207;-77
2022/01/21 11:38:09;;;;;;;5.63;2.70;;;6.40;99.90;;;;;;4989376;28;20429;-71
2022/01/21 11:40:38;;;;;;;7.10;3.10;;;6.40;99.90;;;;;;4984371;28;20198;-76
2022/01/21 11:43:09;;;;;;;6.17;2.33;;;6.40;99.90;;;;;;4979431;28;20350;-75
2022/01/21 11:50:44;;;;;;;4.53;2.70;;;6.50;99.90;;;;;;4986671;28;20352;-69
2022/01/21 11:53:16;;;;;;;5.17;2.40;;;6.50;99.90;;;;;;4987238;28;20207;-65
2022/01/21 11:55:46;;;;;;;7.57;2.30;;;6.60;99.90;;;;;;4976772;28;20207;-69
2022/01/21 11:58:25;;;;;;;4.27;2.10;;;6.60;99.90;;;;;;4984142;28;20207;-70
2022/01/21 12:00:52;;;;;;;4.07;2.00;;;6.60;99.90;;;;;;4989320;28;20171;-69
2022/01/21 12:03:21;;;;;;;5.00;1.90;;;6.60;99.90;;;;;;4998275;28;20192;-68
2022/01/21 12:05:50;;;;;;;4.37;1.63;;;6.60;99.90;;;;;;4987272;28;20404;-68
2022/01/21 12:08:46;;;;;;;5.00;2.20;;;6.60;99.90;;;;;;4984750;28;20218;-66
2022/01/21 12:11:41;;;;;;;3.73;2.00;;;6.70;99.90;;;;;;4989579;28;20266;-68
2022/01/21 12:14:29;;;;;;;4.63;1.80;;;6.70;99.90;;;;;;4975831;28;20274;-68
2022/01/21 12:17:12;;;;;;;3.33;1.70;;;6.80;99.90;;;;;;4989207;28;20190;-69
2022/01/21 12:19:40;;;;;;;4.10;1.73;;;6.80;99.90;;;;;;4986023;28;20203;-69
2022/01/21 12:22:18;;;;;;;4.17;2.00;;;6.80;99.90;;;;;;4984954;28;20221;-68
2022/01/21 12:25:01;;;;;;;4.07;1.83;;;6.80;99.90;;;;;;4990729;28;20191;-68
2022/01/21 12:27:27;;;;;;;4.47;2.60;;;6.80;99.90;;;;;;4989125;28;20179;-67
2022/01/21 12:30:27;;;;;;;4.60;1.97;;;6.80;99.90;;;;;;4987173;28;20175;-67
2022/01/21 12:32:54;;;;;;;5.37;2.17;;;6.90;99.90;;;;;;4988515;28;20179;-66
2022/01/21 12:35:22;;;;;;;6.53;2.20;;;6.90;99.90;;;;;;4988083;28;20190;-68
2022/01/21 12:41:04;;;;;;;5.77;2.33;;;6.90;99.90;;;;;;4992685;28;20249;-68
2022/01/21 12:43:41;;;;;;;4.33;1.90;;;7.00;99.90;;;;;;4989799;28;20204;-66
2022/01/21 12:46:09;;;;;;;5.00;1.93;;;7.10;99.90;;;;;;4993784;28;20183;-65
2022/01/21 12:48:36;;;;;;;4.63;1.90;;;7.20;99.90;;;;;;4987752;28;20191;-66
2022/01/21 12:51:14;;;;;;;5.17;2.00;;;7.20;99.90;;;;;;4987997;28;20176;-67
2022/01/21 12:55:55;;;;;;;2.60;1.73;;;7.20;99.90;;;;;;4992596;28;20194;-68
2022/01/21 12:56:27;;;;;;;4.37;1.90;;;7.20;99.90;;;;;;4991281;28;20183;-68
2022/01/21 12:58:53;;;;;;;3.30;1.80;;;7.30;99.90;;;;;;4990068;28;20190;-70
2022/01/21 13:01:21;;;;;;;5.90;1.83;;;7.30;99.90;;;;;;4989725;28;20183;-66
2022/01/21 13:03:56;;;;;;;4.77;2.03;;;7.30;99.90;;;;;;4989061;28;20194;-68
2022/01/21 13:06:37;;;;;;;4.20;2.20;;;7.30;99.90;;;;;;5011122;28;20277;-68
2022/01/21 13:09:06;;;;;;;9.17;2.13;;;7.20;99.90;;;;;;4988701;28;20194;-69
2022/01/21 13:11:35;;;;;;;3.33;1.90;;;7.20;99.90;;;;;;4995378;28;20505;-68
2022/01/21 13:17:12;;;;;;;5.27;2.00;;;7.10;99.90;;;;;;4977027;28;20183;-69
2022/01/21 13:19:51;;;;;;;6.83;2.03;;;7.00;99.90;;;;;;4992899;28;20179;-69
2022/01/21 13:22:22;;;;;;;7.43;2.33;;;6.90;99.90;;;;;;4994886;28;20270;-68
2022/01/21 13:25:04;;;;;;;5.23;2.00;;;6.80;99.90;;;;;;5007452;28;20211;-70
2022/01/21 13:27:36;;;;;;;5.23;1.73;;;6.70;99.90;;;;;;4995258;28;20190;-68
2022/01/21 13:30:10;;;;;;;5.40;1.63;;;6.60;99.90;;;;;;4991324;28;20172;-69
2022/01/21 13:32:36;;;;;;;3.77;1.90;;;6.60;99.90;;;;;;4992573;28;20241;-69
2022/01/21 13:35:13;;;;;;;4.60;1.80;;;6.60;99.90;;;;;;4986718;28;20199;-71
2022/01/21 13:37:42;;;;;;;3.97;1.57;;;6.50;99.90;;;;;;4995578;28;20179;-69
2022/01/21 13:40:18;;;;;;;3.13;1.50;;;6.50;99.90;;;;;;4997321;28;20218;-69
2022/01/21 13:42:48;;;;;;;4.77;2.00;;;6.40;99.90;;;;;;4998271;28;20206;-67
2022/01/21 13:45:14;;;;;;;4.37;1.87;;;6.40;99.90;;;;;;4985950;28;20200;-72
2022/01/21 13:47:45;;;;;;;3.13;1.63;;;6.40;99.90;;;;;;4993342;28;20261;-68
2022/01/21 13:50:26;;;;;;;3.53;1.70;;;6.40;99.90;;;;;;4992750;28;20207;-69
2022/01/21 13:53:09;;;;;;;4.50;2.00;;;6.30;99.90;;;;;;4990318;28;20183;-68
2022/01/21 13:55:41;;;;;;;4.87;1.97;;;6.30;99.90;;;;;;4994202;28;20226;-65
2022/01/21 13:58:17;;;;;;;3.43;1.93;;;6.20;99.90;;;;;;4986347;28;20195;-70
2022/01/21 14:00:44;;;;;;;4.50;2.10;;;6.20;99.90;;;;;;4990369;28;20183;-66
2022/01/21 14:03:18;;;;;;;5.20;2.20;;;6.10;99.90;;;;;;4995079;28;20286;-68
2022/01/21 14:06:10;;;;;;;6.37;2.40;;;6.10;99.90;;;;;;4993547;28;20463;-67
2022/01/21 14:08:49;;;;;;;4.30;2.07;;;6.10;99.90;;;;;;4976503;28;20502;-67
2022/01/21 14:11:35;;;;;;;3.23;2.10;;;6.10;99.90;;;;;;4982609;28;20180;-69
2022/01/21 14:14:07;;;;;;;5.47;2.57;;;6.10;99.90;;;;;;4989379;28;20187;-70
2022/01/21 14:16:36;;;;;;;3.93;2.50;;;6.10;99.90;;;;;;4987479;28;20203;-68
2022/01/21 14:19:04;;;;;;;5.40;3.23;;;6.10;99.90;;;;;;4989797;28;20203;-67
2022/01/21 14:21:32;;;;;;;5.77;2.63;;;6.00;99.90;;;;;;4993216;28;20183;-69
2022/01/21 14:24:11;;;;;;;5.83;2.60;;;6.00;99.90;;;;;;4990097;28;20245;-67